Portada
METAR-TAF:

METAR-TAF

Aeropuertos :

Aeropuerto de Aalborg

Aalborg, Dinamarca

latitud: 57-06N, longitud: 009-51E, altitud: 3 m

Observación

El informe se hizo hace 10 minutos, a las 03:20 UTC
Viento 5 kt del este
Temperatura 9°C
Humedad 93%
Presión 1029 hPa
Visibilidad 10 km o más

METAR: EKYT 010320Z AUTO 10005KT 9999 NCD 09/08 Q1029

Hora: 05:30 (03:30 UTC)

Pronóstico

El informe se hizo hace 1 hora y 16 minutos, a las 02:14 UTC
Pronóstico válido del 01 a las 03 UTC al 02 a las 03 UTC
Viento 6 kt con dirección variable
Visibilidad 10 km o más
Escasas nubes a una altura de 20000 ft

TAF: EKYT 010214Z 0103/0203 VRB06KT 9999 FEW200

Observaciones y pronósticos meteorológicos de más de 4000 aeropuertos (mensajes METAR y TAF).

Los puntos amarillos y rojos representan las estaciones disponibles.

Ponga el ratón en el punto deseado para ver el nombre de la estación.

Haga clic para ver las observaciones y los pronósticos meteorológicos.

Para cambiar el mapa : haga clic en los botones verdes con una cruz de color negro para hacer un zoom, en el botón verde con un guión para alejar o en las flechas verdes para mapas adyacentes.


METAR-TAF: